createdAt,value
2024-02-10T00:00:21.229Z,1.60
2024-02-10T00:03:09.067Z,1.60
2024-02-10T00:05:36.364Z,1.60
2024-02-10T00:08:04.137Z,1.60
2024-02-10T00:10:31.386Z,1.60
2024-02-10T00:12:59.651Z,1.60
2024-02-10T00:15:28.536Z,1.60
2024-02-10T00:17:56.082Z,1.60
2024-02-10T00:20:26.812Z,1.60
2024-02-10T00:22:54.378Z,1.60
2024-02-10T00:25:25.131Z,1.80
2024-02-10T00:27:54.787Z,1.60
2024-02-10T00:30:22.047Z,1.70
2024-02-10T00:32:52.656Z,3.40
2024-02-10T00:35:23.546Z,1.60
2024-02-10T00:37:51.174Z,1.60
2024-02-10T00:40:18.435Z,3.70
2024-02-10T00:42:46.286Z,1.60
2024-02-10T00:45:13.406Z,1.60
2024-02-10T00:47:45.854Z,1.70
2024-02-10T00:50:13.370Z,1.90
2024-02-10T00:52:41.595Z,1.60
2024-02-10T00:55:08.786Z,1.70
2024-02-10T00:57:36.664Z,1.60
2024-02-10T01:00:04.192Z,2.90
2024-02-10T01:02:31.688Z,1.60
2024-02-10T01:04:58.836Z,1.60
2024-02-10T01:07:26.571Z,1.60
2024-02-10T01:09:53.787Z,1.60
2024-02-10T01:12:21.288Z,1.60
2024-02-10T01:14:48.442Z,1.60
2024-02-10T01:17:15.905Z,1.70
2024-02-10T01:19:52.564Z,1.70
2024-02-10T01:22:23.972Z,1.70
2024-02-10T01:24:55.880Z,1.60
2024-02-10T01:27:27.581Z,1.70
2024-02-10T01:29:57.822Z,1.70
2024-02-10T01:32:26.660Z,1.60
2024-02-10T01:34:55.144Z,1.70
2024-02-10T01:37:23.445Z,1.70
2024-02-10T01:39:55.202Z,1.70
2024-02-10T01:42:39.142Z,1.70
2024-02-10T01:45:09.468Z,1.70
2024-02-10T01:47:38.050Z,1.70
2024-02-10T01:50:06.184Z,1.70
2024-02-10T01:52:40.464Z,1.70
2024-02-10T01:55:10.533Z,1.70
2024-02-10T01:57:38.178Z,1.70
2024-02-10T02:00:06.595Z,1.70
2024-02-10T02:02:34.797Z,1.70
2024-02-10T02:05:03.739Z,1.80
2024-02-10T02:07:34.250Z,1.80
2024-02-10T02:10:02.544Z,1.80
2024-02-10T02:12:30.132Z,1.80
2024-02-10T02:14:58.929Z,1.80
2024-02-10T02:17:26.817Z,1.80
2024-02-10T02:19:54.077Z,1.80
2024-02-10T02:22:22.009Z,1.80
2024-02-10T02:24:49.289Z,3.00
2024-02-10T02:27:16.782Z,1.80
2024-02-10T02:29:43.964Z,1.80
2024-02-10T02:32:12.030Z,1.80
2024-02-10T02:34:39.725Z,1.80
2024-02-10T02:37:08.531Z,1.80
2024-02-10T02:39:37.361Z,1.80
2024-02-10T02:42:07.115Z,1.80
2024-02-10T02:44:34.785Z,1.80
2024-02-10T02:47:06.598Z,1.80
2024-02-10T02:49:39.105Z,1.80
2024-02-10T02:52:08.968Z,1.80
2024-02-10T02:54:36.841Z,1.80
2024-02-10T02:57:06.157Z,1.80
2024-02-10T02:59:33.366Z,1.80
2024-02-10T03:02:03.885Z,2.00
2024-02-10T03:04:31.458Z,1.90
2024-02-10T03:07:00.480Z,1.90
2024-02-10T03:09:28.830Z,1.90
2024-02-10T03:11:56.241Z,1.90
2024-02-10T03:14:23.305Z,1.90
2024-02-10T03:16:50.780Z,1.90
2024-02-10T03:19:17.981Z,1.90
2024-02-10T03:21:45.325Z,1.90
2024-02-10T03:24:12.453Z,1.80
2024-02-10T03:26:39.718Z,1.90
2024-02-10T03:29:07.360Z,1.90
2024-02-10T03:31:35.114Z,1.90
2024-02-10T03:34:03.049Z,1.90
2024-02-10T03:36:31.940Z,1.90
2024-02-10T03:39:04.984Z,1.60
2024-02-10T03:41:32.540Z,2.30
2024-02-10T03:43:59.656Z,1.80
2024-02-10T03:46:27.030Z,1.90
2024-02-10T03:48:54.319Z,1.90
2024-02-10T03:51:21.704Z,1.90
2024-02-10T03:53:51.178Z,1.90
2024-02-10T03:56:18.480Z,1.90
2024-02-10T03:58:49.648Z,1.90
2024-02-10T04:01:17.409Z,1.90
2024-02-10T04:03:48.008Z,2.00
2024-02-10T04:06:18.671Z,1.90
2024-02-10T04:08:49.349Z,1.90
2024-02-10T04:11:20.229Z,2.00
2024-02-10T04:13:47.449Z,1.90
2024-02-10T04:16:15.013Z,3.20
2024-02-10T04:18:42.934Z,1.90
2024-02-10T04:21:10.754Z,1.90
2024-02-10T04:23:41.195Z,2.30
2024-02-10T04:26:09.068Z,1.90
2024-02-10T04:28:36.695Z,2.00
2024-02-10T04:31:04.702Z,2.00
2024-02-10T04:33:31.988Z,2.00
2024-02-10T04:35:59.552Z,2.00
2024-02-10T04:38:26.553Z,2.00
2024-02-10T04:40:53.932Z,2.00
2024-02-10T04:43:21.857Z,2.20
2024-02-10T04:45:51.608Z,2.00
2024-02-10T04:48:21.049Z,2.10
2024-02-10T04:50:49.050Z,2.10
2024-02-10T04:53:16.965Z,2.10
2024-02-10T04:55:44.574Z,2.10
2024-02-10T04:58:14.273Z,2.00
2024-02-10T05:00:42.780Z,2.00
2024-02-10T05:03:10.021Z,2.00
2024-02-10T05:05:37.246Z,2.00
2024-02-10T05:08:07.617Z,2.10
2024-02-10T05:10:35.008Z,2.00
2024-02-10T05:13:02.924Z,2.00
2024-02-10T05:15:30.107Z,2.00
2024-02-10T05:17:57.504Z,1.90
2024-02-10T05:20:25.471Z,2.00
2024-02-10T05:22:54.111Z,1.90
2024-02-10T05:25:22.006Z,1.90
2024-02-10T05:27:49.954Z,2.00
2024-02-10T05:30:26.010Z,2.00
2024-02-10T05:32:55.418Z,2.00
2024-02-10T05:35:22.437Z,2.40
2024-02-10T05:37:51.237Z,2.00
2024-02-10T05:40:19.443Z,2.00
2024-02-10T05:42:47.477Z,2.10
2024-02-10T05:45:18.265Z,1.90
2024-02-10T05:47:46.265Z,2.00
2024-02-10T05:50:19.927Z,2.00
2024-02-10T05:52:48.269Z,2.00
2024-02-10T05:55:22.299Z,2.00
2024-02-10T05:57:50.077Z,2.00
2024-02-10T06:00:17.505Z,2.00
2024-02-10T06:02:44.561Z,2.00
2024-02-10T06:05:14.266Z,2.00
2024-02-10T06:07:42.441Z,2.00
2024-02-10T06:10:16.521Z,2.10
2024-02-10T06:12:50.583Z,2.00
2024-02-10T06:15:21.206Z,2.00
2024-02-10T06:17:58.380Z,1.90
2024-02-10T06:20:26.084Z,2.00
2024-02-10T06:22:54.817Z,2.00
2024-02-10T06:25:27.799Z,2.00
2024-02-10T06:27:56.331Z,2.10
2024-02-10T06:30:25.975Z,2.00
2024-02-10T06:32:53.133Z,2.00
2024-02-10T06:35:21.038Z,2.10
2024-02-10T06:37:50.581Z,2.00
2024-02-10T06:40:18.603Z,2.20
2024-02-10T06:42:53.613Z,2.10
2024-02-10T06:45:25.732Z,2.10
2024-02-10T06:47:53.721Z,2.10
2024-02-10T06:50:26.084Z,2.10
2024-02-10T06:52:54.515Z,2.10
2024-02-10T06:55:24.474Z,2.10
2024-02-10T06:57:53.818Z,2.20
2024-02-10T07:00:21.645Z,2.10
2024-02-10T07:02:49.378Z,2.20
2024-02-10T07:05:17.886Z,2.10
2024-02-10T07:07:47.858Z,2.20
2024-02-10T07:10:19.349Z,2.10
2024-02-10T07:12:47.299Z,2.20
2024-02-10T07:15:22.050Z,2.20
2024-02-10T07:17:51.865Z,2.20
2024-02-10T07:20:26.937Z,2.20
2024-02-10T07:22:58.614Z,2.20
2024-02-10T07:25:30.349Z,2.30
2024-02-10T07:28:02.979Z,2.20
2024-02-10T07:30:31.779Z,2.30
2024-02-10T07:33:09.800Z,2.30
2024-02-10T07:35:37.344Z,2.30
2024-02-10T07:38:04.649Z,2.30
2024-02-10T07:40:32.142Z,2.30
2024-02-10T07:42:59.308Z,2.30
2024-02-10T07:45:27.630Z,2.30
2024-02-10T07:47:57.089Z,2.40
2024-02-10T07:50:24.547Z,2.40
2024-02-10T07:52:54.637Z,2.40
2024-02-10T07:55:22.260Z,2.40
2024-02-10T07:57:49.873Z,2.40
2024-02-10T08:00:20.018Z,2.40
2024-02-10T08:02:47.250Z,2.50
2024-02-10T08:05:21.461Z,2.50
2024-02-10T08:07:48.757Z,2.50
2024-02-10T08:10:17.604Z,2.50
2024-02-10T08:12:47.417Z,2.50
2024-02-10T08:15:14.872Z,2.60
2024-02-10T08:17:42.323Z,2.60
2024-02-10T08:20:11.945Z,2.60
2024-02-10T08:22:39.161Z,2.60
2024-02-10T08:25:08.560Z,2.70
2024-02-10T08:27:35.949Z,2.70
2024-02-10T08:30:06.111Z,2.80
2024-02-10T08:32:33.701Z,2.70
2024-02-10T08:35:02.546Z,2.80
2024-02-10T08:37:31.326Z,2.80
2024-02-10T08:39:59.319Z,2.80
2024-02-10T08:42:28.469Z,2.90
2024-02-10T08:44:55.938Z,1.10
2024-02-10T08:47:23.058Z,2.90
2024-02-10T08:49:50.956Z,2.90
2024-02-10T08:52:21.987Z,2.90
2024-02-10T08:54:50.434Z,3.00
2024-02-10T08:57:18.257Z,3.00
2024-02-10T08:59:47.099Z,3.00
2024-02-10T09:02:14.348Z,3.10
2024-02-10T09:04:41.978Z,3.10
2024-02-10T09:07:09.307Z,3.10
2024-02-10T09:09:36.954Z,3.20
2024-02-10T09:12:04.473Z,3.20
2024-02-10T09:14:32.015Z,3.20
2024-02-10T09:17:00.567Z,3.30
2024-02-10T09:19:27.943Z,3.30
2024-02-10T09:21:59.126Z,3.40
2024-02-10T09:24:27.683Z,3.50
2024-02-10T09:26:57.043Z,3.60
2024-02-10T09:29:24.166Z,3.50
2024-02-10T09:31:58.152Z,3.50
2024-02-10T09:34:25.595Z,3.50
2024-02-10T09:36:53.116Z,3.50
2024-02-10T09:39:21.418Z,3.50
2024-02-10T09:41:52.338Z,3.40
2024-02-10T09:44:20.400Z,3.40
2024-02-10T09:46:51.969Z,3.50
2024-02-10T09:49:20.186Z,3.40
2024-02-10T09:51:47.592Z,3.40
2024-02-10T09:54:15.372Z,3.40
2024-02-10T09:56:45.525Z,3.40
2024-02-10T09:59:19.531Z,3.30
2024-02-10T10:01:47.022Z,3.30
2024-02-10T10:04:14.187Z,3.30
2024-02-10T10:06:44.513Z,3.30
2024-02-10T10:09:16.549Z,3.30
2024-02-10T10:11:45.477Z,3.30
2024-02-10T10:14:22.007Z,3.30
2024-02-10T10:16:57.666Z,3.30
2024-02-10T10:19:28.854Z,3.30
2024-02-10T10:21:57.704Z,3.30
2024-02-10T10:24:28.464Z,3.40
2024-02-10T10:26:56.977Z,3.30
2024-02-10T10:29:24.269Z,3.50
2024-02-10T10:31:52.872Z,3.40
2024-02-10T10:34:20.899Z,3.40
2024-02-10T10:36:49.480Z,3.40
2024-02-10T10:39:17.545Z,3.40
2024-02-10T10:41:45.912Z,3.40
2024-02-10T10:44:13.809Z,3.40
2024-02-10T10:46:41.602Z,3.50
2024-02-10T10:49:12.646Z,3.50
2024-02-10T10:51:45.900Z,3.60
2024-02-10T10:54:13.846Z,3.60
2024-02-10T10:56:41.485Z,3.60
2024-02-10T10:59:10.178Z,3.60
2024-02-10T11:01:38.740Z,3.60
2024-02-10T11:04:06.003Z,3.60
2024-02-10T11:06:36.860Z,3.60
2024-02-10T11:09:04.663Z,3.60
2024-02-10T11:11:36.752Z,3.60
2024-02-10T11:14:13.278Z,3.60
2024-02-10T11:16:44.395Z,3.60
2024-02-10T11:19:14.510Z,3.60
2024-02-10T11:21:43.753Z,3.60
2024-02-10T11:24:16.143Z,3.60
2024-02-10T11:26:45.912Z,3.70
2024-02-10T11:29:20.358Z,3.70
2024-02-10T11:31:47.900Z,3.70
2024-02-10T11:34:19.401Z,3.70
2024-02-10T11:36:53.527Z,3.90
2024-02-10T11:39:21.617Z,3.80
2024-02-10T11:41:48.917Z,3.70
2024-02-10T11:44:18.586Z,3.70
2024-02-10T11:46:47.055Z,3.80
2024-02-10T11:49:14.338Z,3.60
2024-02-10T11:51:41.929Z,3.70
2024-02-10T11:54:09.226Z,3.70
2024-02-10T11:56:36.522Z,3.70
2024-02-10T11:59:07.195Z,3.70
2024-02-10T12:01:35.559Z,3.70
2024-02-10T12:04:03.665Z,3.70
2024-02-10T12:06:31.039Z,3.80
2024-02-10T12:08:59.489Z,3.80
2024-02-10T12:11:29.418Z,3.80
2024-02-10T12:13:57.704Z,3.90
2024-02-10T12:16:27.778Z,3.90
2024-02-10T12:18:56.408Z,3.90
2024-02-10T12:21:35.062Z,3.90
2024-02-10T12:24:05.526Z,3.90
2024-02-10T12:26:32.936Z,4.00
2024-02-10T12:29:00.048Z,3.90
2024-02-10T12:31:28.325Z,4.00
2024-02-10T12:33:56.452Z,4.00
2024-02-10T12:36:26.246Z,4.00
2024-02-10T12:38:53.330Z,3.90
2024-02-10T12:41:20.885Z,3.90
2024-02-10T12:43:50.025Z,3.90
2024-02-10T12:46:17.396Z,3.90
2024-02-10T12:48:44.532Z,3.90
2024-02-10T12:51:12.173Z,3.50
2024-02-10T12:53:39.276Z,3.80
2024-02-10T12:56:06.959Z,3.80
2024-02-10T12:58:34.058Z,3.80
2024-02-10T13:01:01.446Z,3.80
2024-02-10T13:03:28.558Z,3.80
2024-02-10T13:05:56.580Z,3.70
2024-02-10T13:08:23.632Z,3.70
2024-02-10T13:10:51.037Z,3.70
2024-02-10T13:13:19.009Z,3.70
2024-02-10T13:15:46.601Z,3.70
2024-02-10T13:18:14.855Z,3.70
2024-02-10T13:20:42.507Z,3.70
2024-02-10T13:23:09.672Z,3.70
2024-02-10T13:25:37.211Z,3.70
2024-02-10T13:28:05.638Z,3.70
2024-02-10T13:30:33.073Z,3.70
2024-02-10T13:33:01.990Z,3.70
2024-02-10T13:35:30.828Z,3.70
2024-02-10T13:38:16.860Z,3.70
2024-02-10T13:41:02.594Z,3.70
2024-02-10T13:43:48.320Z,3.70
2024-02-10T13:46:34.218Z,3.70
2024-02-10T13:49:19.783Z,3.70
2024-02-10T13:52:05.875Z,3.60
2024-02-10T13:54:53.079Z,3.60
2024-02-10T13:57:40.095Z,3.60
2024-02-10T14:00:25.915Z,3.60
2024-02-10T14:03:02.258Z,3.60
2024-02-10T14:05:49.537Z,3.60
2024-02-10T14:08:36.484Z,3.60
2024-02-10T14:11:20.883Z,3.60
2024-02-10T14:13:52.282Z,3.60
2024-02-10T14:16:28.508Z,3.60
2024-02-10T14:18:56.154Z,3.60
2024-02-10T14:21:33.895Z,3.60
2024-02-10T14:24:01.978Z,3.60
2024-02-10T14:26:39.001Z,3.70
2024-02-10T14:29:08.346Z,3.60
2024-02-10T14:31:46.019Z,3.60
2024-02-10T14:34:27.064Z,3.60
2024-02-10T14:36:57.234Z,3.60
2024-02-10T14:39:25.049Z,3.60
2024-02-10T14:41:53.384Z,3.60
2024-02-10T14:44:22.709Z,1.90
2024-02-10T14:46:50.666Z,3.60
2024-02-10T14:49:23.219Z,3.60
2024-02-10T14:51:50.396Z,3.60
2024-02-10T14:54:17.830Z,3.60
2024-02-10T14:56:46.622Z,3.60
2024-02-10T14:59:14.069Z,3.60
2024-02-10T15:01:41.718Z,3.60
2024-02-10T15:04:09.254Z,3.60
2024-02-10T15:06:38.075Z,3.60
2024-02-10T15:09:09.638Z,3.50
2024-02-10T15:11:40.934Z,3.50
2024-02-10T15:14:10.404Z,3.50
2024-02-10T15:16:38.267Z,3.50
2024-02-10T15:19:05.740Z,3.50
2024-02-10T15:21:34.646Z,3.50
2024-02-10T15:24:08.249Z,2.20
2024-02-10T15:26:35.343Z,3.50
2024-02-10T15:29:03.439Z,3.50
2024-02-10T15:31:31.668Z,3.50
2024-02-10T15:33:59.625Z,3.40
2024-02-10T15:36:28.353Z,3.40
2024-02-10T15:39:02.284Z,3.40
2024-02-10T15:41:29.825Z,3.40
2024-02-10T15:43:57.326Z,3.40
2024-02-10T15:46:24.651Z,3.40
2024-02-10T15:48:55.401Z,3.40
2024-02-10T15:51:22.840Z,3.40
2024-02-10T15:53:50.210Z,3.40
2024-02-10T15:56:17.440Z,3.30
2024-02-10T15:58:50.371Z,3.30
2024-02-10T16:01:18.918Z,3.40
2024-02-10T16:03:46.271Z,3.30
2024-02-10T16:06:13.721Z,3.30
2024-02-10T16:08:45.851Z,3.30
2024-02-10T16:11:13.263Z,3.30
2024-02-10T16:13:41.182Z,3.30
2024-02-10T16:16:13.981Z,3.40
2024-02-10T16:18:42.410Z,3.40
2024-02-10T16:21:13.944Z,3.30
2024-02-10T16:23:41.768Z,3.30
2024-02-10T16:26:13.207Z,3.30
2024-02-10T16:28:40.691Z,3.30
2024-02-10T16:31:11.727Z,3.30
2024-02-10T16:33:39.261Z,3.30
2024-02-10T16:36:06.659Z,3.30
2024-02-10T16:38:53.895Z,3.30
2024-02-10T16:41:21.605Z,3.30
2024-02-10T16:43:49.235Z,3.30
2024-02-10T16:46:17.964Z,3.10
2024-02-10T16:48:50.603Z,3.30
2024-02-10T16:51:44.304Z,3.20
2024-02-10T16:54:12.804Z,3.30
2024-02-10T16:56:40.440Z,3.20
2024-02-10T16:59:08.667Z,3.20
2024-02-10T17:01:36.097Z,3.30
2024-02-10T17:04:05.596Z,3.30
2024-02-10T17:06:36.867Z,3.30
2024-02-10T17:09:05.876Z,3.30
2024-02-10T17:11:34.718Z,3.30
2024-02-10T17:14:02.679Z,3.30
2024-02-10T17:16:30.259Z,3.30
2024-02-10T17:18:58.170Z,3.30
2024-02-10T17:21:26.626Z,3.30
2024-02-10T17:23:54.059Z,3.20
2024-02-10T17:26:21.309Z,3.20
2024-02-10T17:28:48.730Z,3.30
2024-02-10T17:31:16.298Z,3.30
2024-02-10T17:33:43.835Z,3.30
2024-02-10T17:36:11.248Z,3.30
2024-02-10T17:38:40.241Z,3.20
2024-02-10T17:41:12.378Z,3.30
2024-02-10T17:43:40.618Z,3.30
2024-02-10T17:46:07.887Z,3.20
2024-02-10T17:48:37.771Z,3.20
2024-02-10T17:51:08.198Z,3.30
2024-02-10T17:53:37.671Z,3.30
2024-02-10T17:56:10.928Z,3.30
2024-02-10T17:58:38.741Z,3.30
2024-02-10T18:01:07.308Z,3.30
2024-02-10T18:03:37.249Z,3.30
2024-02-10T18:06:06.238Z,3.30
2024-02-10T18:08:36.509Z,3.30
2024-02-10T18:11:03.789Z,3.30
2024-02-10T18:13:31.079Z,3.20
2024-02-10T18:15:58.201Z,3.30
2024-02-10T18:18:26.060Z,3.30
2024-02-10T18:20:53.125Z,3.30
2024-02-10T18:23:21.581Z,3.30
2024-02-10T18:25:48.697Z,3.30
2024-02-10T18:28:16.124Z,3.30
2024-02-10T18:30:47.643Z,3.30
2024-02-10T18:33:16.033Z,3.40
2024-02-10T18:35:48.708Z,3.30
2024-02-10T18:38:17.703Z,3.30
2024-02-10T18:40:45.499Z,3.30
2024-02-10T18:43:13.259Z,3.30
2024-02-10T18:45:45.603Z,3.30
2024-02-10T18:48:16.818Z,3.30
2024-02-10T18:50:47.203Z,3.50
2024-02-10T18:53:16.049Z,3.30
2024-02-10T18:55:44.230Z,3.30
2024-02-10T18:58:12.831Z,3.30
2024-02-10T19:00:43.028Z,3.30
2024-02-10T19:03:10.594Z,3.30
2024-02-10T19:05:38.109Z,3.30
2024-02-10T19:08:05.781Z,3.30
2024-02-10T19:10:32.891Z,3.40
2024-02-10T19:13:00.559Z,3.30
2024-02-10T19:15:27.559Z,3.30
2024-02-10T19:17:55.770Z,3.40
2024-02-10T19:20:25.062Z,3.30
2024-02-10T19:22:53.649Z,3.30
2024-02-10T19:25:21.557Z,3.30
2024-02-10T19:27:50.315Z,3.30
2024-02-10T19:30:17.751Z,3.30
2024-02-10T19:32:46.607Z,3.30
2024-02-10T19:35:16.483Z,3.30
2024-02-10T19:37:47.365Z,3.30
2024-02-10T19:40:15.888Z,3.30
2024-02-10T19:42:44.442Z,3.30
2024-02-10T19:45:15.932Z,3.30
2024-02-10T19:47:47.562Z,3.30
2024-02-10T19:50:15.497Z,3.30
2024-02-10T19:52:43.108Z,3.40
2024-02-10T19:55:10.743Z,3.40
2024-02-10T19:57:41.539Z,3.40
2024-02-10T20:00:10.396Z,3.30
2024-02-10T20:02:44.054Z,3.30
2024-02-10T20:05:12.852Z,3.40
2024-02-10T20:07:42.543Z,3.40
2024-02-10T20:10:10.553Z,3.40
2024-02-10T20:12:39.683Z,3.40
2024-02-10T20:15:07.223Z,3.40
2024-02-10T20:17:34.672Z,3.40
2024-02-10T20:20:08.041Z,3.40
2024-02-10T20:22:37.179Z,3.30
2024-02-10T20:25:05.722Z,3.40
2024-02-10T20:27:34.808Z,3.40
2024-02-10T20:30:01.788Z,3.40
2024-02-10T20:32:29.449Z,3.40
2024-02-10T20:34:57.064Z,3.40
2024-02-10T20:37:24.605Z,3.40
2024-02-10T20:39:52.147Z,3.40
2024-02-10T20:42:19.753Z,3.50
2024-02-10T20:44:50.461Z,3.50
2024-02-10T20:47:18.347Z,3.50
2024-02-10T20:49:46.136Z,3.50
2024-02-10T20:52:16.220Z,3.60
2024-02-10T20:54:44.446Z,3.50
2024-02-10T20:57:12.611Z,3.50
2024-02-10T20:59:40.020Z,3.50
2024-02-10T21:02:11.710Z,3.50
2024-02-10T21:04:39.203Z,3.50
2024-02-10T21:07:06.582Z,3.50
2024-02-10T21:09:34.694Z,3.50
2024-02-10T21:12:07.142Z,3.50
2024-02-10T21:14:43.266Z,3.50
2024-02-10T21:17:11.098Z,3.50
2024-02-10T21:19:39.493Z,3.50
2024-02-10T21:22:07.485Z,3.50
2024-02-10T21:24:34.562Z,3.60
2024-02-10T21:27:02.067Z,3.50
2024-02-10T21:29:29.086Z,3.60
2024-02-10T21:31:56.557Z,3.60
2024-02-10T21:34:25.685Z,3.60
2024-02-10T21:36:53.811Z,3.60
2024-02-10T21:39:20.965Z,3.60
2024-02-10T21:41:48.573Z,3.60
2024-02-10T21:44:16.372Z,3.60
2024-02-10T21:46:44.088Z,3.60
2024-02-10T21:49:12.757Z,3.60
2024-02-10T21:51:51.250Z,3.70
2024-02-10T21:54:18.841Z,3.70
2024-02-10T21:56:47.017Z,3.70
2024-02-10T21:59:17.176Z,3.70
2024-02-10T22:01:50.158Z,3.70
2024-02-10T22:04:17.467Z,3.70
2024-02-10T22:06:44.867Z,3.80
2024-02-10T22:09:12.299Z,3.70
2024-02-10T22:11:39.938Z,3.70
2024-02-10T22:14:11.305Z,3.70
2024-02-10T22:16:39.100Z,3.70
2024-02-10T22:19:06.419Z,3.70
2024-02-10T22:21:33.845Z,3.60
2024-02-10T22:24:00.887Z,3.70
2024-02-10T22:26:31.889Z,3.80
2024-02-10T22:28:59.672Z,3.70
2024-02-10T22:31:33.670Z,3.70
2024-02-10T22:34:00.945Z,3.70
2024-02-10T22:36:28.727Z,3.70
2024-02-10T22:38:56.800Z,3.70
2024-02-10T22:41:24.763Z,3.70
2024-02-10T22:43:51.936Z,3.70
2024-02-10T22:46:19.260Z,3.70
2024-02-10T22:48:46.284Z,3.70
2024-02-10T22:51:16.859Z,3.70
2024-02-10T22:53:43.957Z,3.70
2024-02-10T22:56:12.858Z,3.80
2024-02-10T22:58:40.089Z,3.70
2024-02-10T23:01:07.488Z,3.70
2024-02-10T23:03:35.108Z,3.70
2024-02-10T23:06:02.665Z,3.60
2024-02-10T23:08:32.922Z,3.70
2024-02-10T23:11:01.284Z,3.70
2024-02-10T23:13:28.472Z,3.70
2024-02-10T23:15:56.150Z,3.60
2024-02-10T23:18:25.665Z,3.60
2024-02-10T23:20:53.391Z,3.70
2024-02-10T23:23:28.610Z,3.70
2024-02-10T23:25:57.759Z,3.60
2024-02-10T23:28:25.142Z,3.60
2024-02-10T23:30:53.242Z,3.60
2024-02-10T23:33:21.481Z,3.60
2024-02-10T23:35:51.755Z,3.60
2024-02-10T23:38:22.299Z,3.60
2024-02-10T23:40:49.723Z,3.60
2024-02-10T23:43:16.819Z,3.60
2024-02-10T23:45:45.382Z,3.60
2024-02-10T23:48:12.934Z,3.60
2024-02-10T23:50:40.581Z,3.60
2024-02-10T23:53:11.350Z,3.50
2024-02-10T23:55:43.066Z,3.60
2024-02-10T23:58:10.253Z,3.60
